sensor_id;sensor_type;location;lat;lon;timestamp;pressure;altitude;pressure_sealevel;temperature;humidity
62946;BME280;52164;52.212;-1.010;2022-07-06T00:01:16;101851.55;;;13.28;61.43
62946;BME280;52164;52.212;-1.010;2022-07-06T00:03:43;101854.39;;;13.24;61.43
62946;BME280;52164;52.212;-1.010;2022-07-06T00:06:08;101854.86;;;13.18;61.55
62946;BME280;52164;52.212;-1.010;2022-07-06T00:08:34;101849.60;;;13.11;61.68
62946;BME280;52164;52.212;-1.010;2022-07-06T00:11:00;101850.25;;;13.06;62.08
62946;BME280;52164;52.212;-1.010;2022-07-06T00:13:26;101847.86;;;13.01;62.23
62946;BME280;52164;52.212;-1.010;2022-07-06T00:15:52;101844.38;;;12.94;62.25
62946;BME280;52164;52.212;-1.010;2022-07-06T00:18:17;101843.75;;;12.87;62.35
62946;BME280;52164;52.212;-1.010;2022-07-06T00:20:43;101838.30;;;12.81;62.95
62946;BME280;52164;52.212;-1.010;2022-07-06T00:23:08;101836.30;;;12.78;62.84
62946;BME280;52164;52.212;-1.010;2022-07-06T00:25:34;101831.96;;;12.75;62.85
62946;BME280;52164;52.212;-1.010;2022-07-06T00:28:00;101831.59;;;12.74;63.14
62946;BME280;52164;52.212;-1.010;2022-07-06T00:30:25;101826.02;;;12.74;63.21
62946;BME280;52164;52.212;-1.010;2022-07-06T00:32:51;101826.24;;;12.76;63.20
62946;BME280;52164;52.212;-1.010;2022-07-06T00:35:16;101827.37;;;12.80;63.51
62946;BME280;52164;52.212;-1.010;2022-07-06T00:37:45;101829.38;;;12.83;63.80
62946;BME280;52164;52.212;-1.010;2022-07-06T00:40:10;101833.36;;;12.87;63.74
62946;BME280;52164;52.212;-1.010;2022-07-06T00:42:51;101829.10;;;12.91;63.46
62946;BME280;52164;52.212;-1.010;2022-07-06T00:45:18;101825.58;;;12.95;63.54
62946;BME280;52164;52.212;-1.010;2022-07-06T00:47:44;101829.89;;;12.98;63.48
62946;BME280;52164;52.212;-1.010;2022-07-06T00:50:11;101829.21;;;13.01;63.68
62946;BME280;52164;52.212;-1.010;2022-07-06T00:52:43;101831.40;;;13.05;63.36
62946;BME280;52164;52.212;-1.010;2022-07-06T00:55:09;101822.46;;;13.06;63.75
62946;BME280;52164;52.212;-1.010;2022-07-06T00:57:36;101819.27;;;13.08;63.76
62946;BME280;52164;52.212;-1.010;2022-07-06T01:00:07;101814.43;;;13.09;63.65
62946;BME280;52164;52.212;-1.010;2022-07-06T01:02:34;101810.34;;;13.11;63.53
62946;BME280;52164;52.212;-1.010;2022-07-06T01:05:00;101807.13;;;13.14;63.59
62946;BME280;52164;52.212;-1.010;2022-07-06T01:07:26;101804.31;;;13.18;63.51
62946;BME280;52164;52.212;-1.010;2022-07-06T01:09:53;101802.73;;;13.23;63.76
62946;BME280;52164;52.212;-1.010;2022-07-06T01:12:19;101809.60;;;13.29;63.72
62946;BME280;52164;52.212;-1.010;2022-07-06T01:14:45;101817.42;;;13.36;63.71
62946;BME280;52164;52.212;-1.010;2022-07-06T01:17:12;101815.48;;;13.41;63.67
62946;BME280;52164;52.212;-1.010;2022-07-06T01:19:39;101817.30;;;13.43;63.80
62946;BME280;52164;52.212;-1.010;2022-07-06T01:22:04;101816.45;;;13.46;63.94
62946;BME280;52164;52.212;-1.010;2022-07-06T01:24:30;101815.02;;;13.47;64.37
62946;BME280;52164;52.212;-1.010;2022-07-06T01:26:55;101818.45;;;13.51;64.33
62946;BME280;52164;52.212;-1.010;2022-07-06T01:29:21;101821.89;;;13.54;64.13
62946;BME280;52164;52.212;-1.010;2022-07-06T01:31:48;101824.23;;;13.57;64.11
62946;BME280;52164;52.212;-1.010;2022-07-06T01:34:16;101825.70;;;13.58;64.16
62946;BME280;52164;52.212;-1.010;2022-07-06T01:36:42;101832.30;;;13.57;64.27
62946;BME280;52164;52.212;-1.010;2022-07-06T01:39:08;101828.90;;;13.55;64.40
62946;BME280;52164;52.212;-1.010;2022-07-06T01:41:34;101830.18;;;13.58;64.53
62946;BME280;52164;52.212;-1.010;2022-07-06T01:44:01;101830.20;;;13.61;64.56
62946;BME280;52164;52.212;-1.010;2022-07-06T01:46:26;101831.84;;;13.63;64.59
62946;BME280;52164;52.212;-1.010;2022-07-06T01:48:52;101838.85;;;13.67;64.36
62946;BME280;52164;52.212;-1.010;2022-07-06T01:51:17;101835.28;;;13.70;64.31
62946;BME280;52164;52.212;-1.010;2022-07-06T01:53:43;101832.97;;;13.72;64.51
62946;BME280;52164;52.212;-1.010;2022-07-06T01:56:09;101830.67;;;13.77;64.25
62946;BME280;52164;52.212;-1.010;2022-07-06T01:58:35;101827.85;;;13.81;64.53
62946;BME280;52164;52.212;-1.010;2022-07-06T02:01:09;101828.44;;;13.88;64.34
62946;BME280;52164;52.212;-1.010;2022-07-06T02:03:35;101825.79;;;13.93;64.46
62946;BME280;52164;52.212;-1.010;2022-07-06T02:06:01;101827.42;;;13.97;64.02
62946;BME280;52164;52.212;-1.010;2022-07-06T02:08:26;101823.51;;;14.01;63.98
62946;BME280;52164;52.212;-1.010;2022-07-06T02:10:52;101816.35;;;14.05;63.61
62946;BME280;52164;52.212;-1.010;2022-07-06T02:13:17;101813.50;;;14.09;63.95
62946;BME280;52164;52.212;-1.010;2022-07-06T02:15:43;101813.87;;;14.13;63.77
62946;BME280;52164;52.212;-1.010;2022-07-06T02:18:09;101815.88;;;14.16;63.73
62946;BME280;52164;52.212;-1.010;2022-07-06T02:20:34;101812.13;;;14.17;63.85
62946;BME280;52164;52.212;-1.010;2022-07-06T02:22:59;101806.37;;;14.17;64.06
62946;BME280;52164;52.212;-1.010;2022-07-06T02:25:25;101801.19;;;14.20;64.25
62946;BME280;52164;52.212;-1.010;2022-07-06T02:27:50;101801.91;;;14.21;64.36
62946;BME280;52164;52.212;-1.010;2022-07-06T02:30:16;101799.94;;;14.23;64.27
62946;BME280;52164;52.212;-1.010;2022-07-06T02:32:42;101802.64;;;14.24;64.69
62946;BME280;52164;52.212;-1.010;2022-07-06T02:35:07;101798.87;;;14.25;65.03
62946;BME280;52164;52.212;-1.010;2022-07-06T02:37:33;101794.56;;;14.27;65.38
62946;BME280;52164;52.212;-1.010;2022-07-06T02:39:58;101791.70;;;14.28;65.45
62946;BME280;52164;52.212;-1.010;2022-07-06T02:42:24;101792.62;;;14.30;65.99
62946;BME280;52164;52.212;-1.010;2022-07-06T02:44:52;101789.93;;;14.33;66.20
62946;BME280;52164;52.212;-1.010;2022-07-06T02:47:18;101794.61;;;14.37;66.35
62946;BME280;52164;52.212;-1.010;2022-07-06T02:49:44;101793.56;;;14.40;66.44
62946;BME280;52164;52.212;-1.010;2022-07-06T02:52:09;101788.91;;;14.44;66.44
62946;BME280;52164;52.212;-1.010;2022-07-06T02:54:35;101786.22;;;14.48;66.65
62946;BME280;52164;52.212;-1.010;2022-07-06T02:57:01;101783.36;;;14.50;66.56
62946;BME280;52164;52.212;-1.010;2022-07-06T02:59:26;101792.35;;;14.53;66.66
62946;BME280;52164;52.212;-1.010;2022-07-06T03:01:52;101797.92;;;14.55;66.72
62946;BME280;52164;52.212;-1.010;2022-07-06T03:04:17;101805.14;;;14.58;66.72
62946;BME280;52164;52.212;-1.010;2022-07-06T03:06:43;101805.67;;;14.59;66.70
62946;BME280;52164;52.212;-1.010;2022-07-06T03:09:08;101803.00;;;14.60;67.03
62946;BME280;52164;52.212;-1.010;2022-07-06T03:11:34;101787.58;;;14.64;67.04
62946;BME280;52164;52.212;-1.010;2022-07-06T03:14:03;101783.10;;;14.68;67.06
62946;BME280;52164;52.212;-1.010;2022-07-06T03:16:28;101779.36;;;14.73;66.81
62946;BME280;52164;52.212;-1.010;2022-07-06T03:18:54;101777.56;;;14.77;66.81
62946;BME280;52164;52.212;-1.010;2022-07-06T03:21:20;101773.98;;;14.83;66.67
62946;BME280;52164;52.212;-1.010;2022-07-06T03:23:45;101764.47;;;14.88;66.60
62946;BME280;52164;52.212;-1.010;2022-07-06T03:26:10;101752.60;;;14.91;66.54
62946;BME280;52164;52.212;-1.010;2022-07-06T03:28:36;101754.77;;;14.92;66.44
62946;BME280;52164;52.212;-1.010;2022-07-06T03:31:01;101751.16;;;14.90;66.50
62946;BME280;52164;52.212;-1.010;2022-07-06T03:33:27;101750.63;;;14.86;66.46
62946;BME280;52164;52.212;-1.010;2022-07-06T03:35:52;101761.77;;;14.82;66.29
62946;BME280;52164;52.212;-1.010;2022-07-06T03:38:18;101769.29;;;14.77;66.22
62946;BME280;52164;52.212;-1.010;2022-07-06T03:40:43;101775.20;;;14.71;66.39
62946;BME280;52164;52.212;-1.010;2022-07-06T03:43:09;101778.24;;;14.66;66.31
62946;BME280;52164;52.212;-1.010;2022-07-06T03:45:34;101772.45;;;14.59;66.15
62946;BME280;52164;52.212;-1.010;2022-07-06T03:48:00;101771.34;;;14.54;66.06
62946;BME280;52164;52.212;-1.010;2022-07-06T03:50:25;101773.30;;;14.50;66.13
62946;BME280;52164;52.212;-1.010;2022-07-06T03:52:51;101773.12;;;14.48;66.22
62946;BME280;52164;52.212;-1.010;2022-07-06T03:55:16;101770.61;;;14.47;66.27
62946;BME280;52164;52.212;-1.010;2022-07-06T03:57:42;101775.98;;;14.48;66.24
62946;BME280;52164;52.212;-1.010;2022-07-06T04:00:08;101776.00;;;14.51;66.25
62946;BME280;52164;52.212;-1.010;2022-07-06T04:02:34;101777.45;;;14.54;66.18
62946;BME280;52164;52.212;-1.010;2022-07-06T04:05:00;101781.23;;;14.56;66.10
62946;BME280;52164;52.212;-1.010;2022-07-06T04:07:26;101786.45;;;14.57;65.98
62946;BME280;52164;52.212;-1.010;2022-07-06T04:09:52;101793.80;;;14.56;66.10
62946;BME280;52164;52.212;-1.010;2022-07-06T04:12:17;101797.77;;;14.56;66.07
62946;BME280;52164;52.212;-1.010;2022-07-06T04:14:43;101796.50;;;14.57;66.16
62946;BME280;52164;52.212;-1.010;2022-07-06T04:17:08;101798.30;;;14.59;66.03
62946;BME280;52164;52.212;-1.010;2022-07-06T04:19:54;101795.82;;;14.61;66.24
62946;BME280;52164;52.212;-1.010;2022-07-06T04:22:19;101798.73;;;14.63;66.25
62946;BME280;52164;52.212;-1.010;2022-07-06T04:24:45;101794.95;;;14.64;66.20
62946;BME280;52164;52.212;-1.010;2022-07-06T04:27:10;101796.03;;;14.68;66.33
62946;BME280;52164;52.212;-1.010;2022-07-06T04:29:36;101794.80;;;14.70;66.34
62946;BME280;52164;52.212;-1.010;2022-07-06T04:32:02;101795.52;;;14.74;66.49
62946;BME280;52164;52.212;-1.010;2022-07-06T04:34:28;101796.60;;;14.77;66.77
62946;BME280;52164;52.212;-1.010;2022-07-06T04:36:54;101798.41;;;14.82;66.83
62946;BME280;52164;52.212;-1.010;2022-07-06T04:39:19;101797.18;;;14.86;67.06
62946;BME280;52164;52.212;-1.010;2022-07-06T04:41:45;101794.31;;;14.91;67.25
62946;BME280;52164;52.212;-1.010;2022-07-06T04:44:10;101790.36;;;14.95;67.42
62946;BME280;52164;52.212;-1.010;2022-07-06T04:46:36;101784.98;;;15.00;67.53
62946;BME280;52164;52.212;-1.010;2022-07-06T04:49:01;101782.48;;;15.03;67.54
62946;BME280;52164;52.212;-1.010;2022-07-06T04:51:27;101780.69;;;15.07;67.62
62946;BME280;52164;52.212;-1.010;2022-07-06T04:53:52;101783.39;;;15.09;67.67
62946;BME280;52164;52.212;-1.010;2022-07-06T04:56:18;101780.87;;;15.10;67.73
62946;BME280;52164;52.212;-1.010;2022-07-06T04:58:43;101778.91;;;15.13;67.86
62946;BME280;52164;52.212;-1.010;2022-07-06T05:01:09;101774.59;;;15.16;67.91
62946;BME280;52164;52.212;-1.010;2022-07-06T05:03:35;101782.31;;;15.19;67.98
62946;BME280;52164;52.212;-1.010;2022-07-06T05:06:05;101786.82;;;15.19;68.38
62946;BME280;52164;52.212;-1.010;2022-07-06T05:08:31;101781.95;;;15.20;68.55
62946;BME280;52164;52.212;-1.010;2022-07-06T05:11:00;101776.20;;;15.22;68.67
62946;BME280;52164;52.212;-1.010;2022-07-06T05:13:26;101783.60;;;15.27;68.79
62946;BME280;52164;52.212;-1.010;2022-07-06T05:15:51;101790.79;;;15.33;68.65
62946;BME280;52164;52.212;-1.010;2022-07-06T05:18:17;101793.30;;;15.36;68.91
62946;BME280;52164;52.212;-1.010;2022-07-06T05:20:43;101785.56;;;15.38;68.93
62946;BME280;52164;52.212;-1.010;2022-07-06T05:23:09;101786.48;;;15.40;68.92
62946;BME280;52164;52.212;-1.010;2022-07-06T05:25:34;101785.77;;;15.41;69.04
62946;BME280;52164;52.212;-1.010;2022-07-06T05:28:02;101787.55;;;15.43;69.25
62946;BME280;52164;52.212;-1.010;2022-07-06T05:30:28;101786.84;;;15.43;69.30
62946;BME280;52164;52.212;-1.010;2022-07-06T05:32:53;101792.59;;;15.45;69.40
62946;BME280;52164;52.212;-1.010;2022-07-06T05:35:19;101793.13;;;15.46;69.66
62946;BME280;52164;52.212;-1.010;2022-07-06T05:37:44;101796.00;;;15.49;69.67
62946;BME280;52164;52.212;-1.010;2022-07-06T05:40:10;101790.07;;;15.52;69.34
62946;BME280;52164;52.212;-1.010;2022-07-06T05:42:36;101788.28;;;15.59;69.54
62946;BME280;52164;52.212;-1.010;2022-07-06T05:45:02;101786.47;;;15.66;69.62
62946;BME280;52164;52.212;-1.010;2022-07-06T05:47:29;101788.09;;;15.73;69.80
62946;BME280;52164;52.212;-1.010;2022-07-06T05:50:15;101787.92;;;15.83;69.71
62946;BME280;52164;52.212;-1.010;2022-07-06T05:52:41;101789.17;;;15.93;69.65
62946;BME280;52164;52.212;-1.010;2022-07-06T05:55:11;101796.70;;;16.03;69.63
62946;BME280;52164;52.212;-1.010;2022-07-06T05:57:37;101802.11;;;16.09;69.62
62946;BME280;52164;52.212;-1.010;2022-07-06T06:00:07;101801.55;;;16.12;69.68
62946;BME280;52164;52.212;-1.010;2022-07-06T06:02:37;101800.27;;;16.16;69.45
62946;BME280;52164;52.212;-1.010;2022-07-06T06:05:04;101795.77;;;16.18;69.49
62946;BME280;52164;52.212;-1.010;2022-07-06T06:07:29;101790.18;;;16.19;69.46
62946;BME280;52164;52.212;-1.010;2022-07-06T06:09:55;101786.39;;;16.21;69.38
62946;BME280;52164;52.212;-1.010;2022-07-06T06:12:20;101785.31;;;16.22;69.43
62946;BME280;52164;52.212;-1.010;2022-07-06T06:14:46;101783.51;;;16.27;69.45
62946;BME280;52164;52.212;-1.010;2022-07-06T06:17:11;101786.38;;;16.29;69.28
62946;BME280;52164;52.212;-1.010;2022-07-06T06:19:40;101793.58;;;16.32;69.26
62946;BME280;52164;52.212;-1.010;2022-07-06T06:22:05;101799.50;;;16.36;69.14
62946;BME280;52164;52.212;-1.010;2022-07-06T06:24:32;101795.89;;;16.40;69.20
62946;BME280;52164;52.212;-1.010;2022-07-06T06:26:57;101796.05;;;16.45;69.22
62946;BME280;52164;52.212;-1.010;2022-07-06T06:29:24;101798.72;;;16.52;69.10
62946;BME280;52164;52.212;-1.010;2022-07-06T06:31:50;101801.41;;;16.58;68.97
62946;BME280;52164;52.212;-1.010;2022-07-06T06:34:15;101805.72;;;16.59;69.30
62946;BME280;52164;52.212;-1.010;2022-07-06T06:36:41;101810.91;;;16.65;69.11
62946;BME280;52164;52.212;-1.010;2022-07-06T06:39:06;101813.59;;;16.71;68.90
62946;BME280;52164;52.212;-1.010;2022-07-06T06:41:32;101803.12;;;16.75;68.93
62946;BME280;52164;52.212;-1.010;2022-07-06T06:43:58;101806.70;;;16.81;68.78
62946;BME280;52164;52.212;-1.010;2022-07-06T06:46:23;101811.73;;;16.86;68.61
62946;BME280;52164;52.212;-1.010;2022-07-06T06:48:49;101810.10;;;16.91;68.82
62946;BME280;52164;52.212;-1.010;2022-07-06T06:51:14;101798.55;;;16.94;68.82
62946;BME280;52164;52.212;-1.010;2022-07-06T06:53:40;101800.16;;;16.99;68.70
62946;BME280;52164;52.212;-1.010;2022-07-06T06:56:06;101805.88;;;17.06;68.66
62946;BME280;52164;52.212;-1.010;2022-07-06T06:58:32;101804.02;;;17.12;68.41
62946;BME280;52164;52.212;-1.010;2022-07-06T07:00:58;101801.67;;;17.12;68.51
62946;BME280;52164;52.212;-1.010;2022-07-06T07:03:23;101800.60;;;17.13;68.32
62946;BME280;52164;52.212;-1.010;2022-07-06T07:05:49;101798.76;;;17.17;68.21
62946;BME280;52164;52.212;-1.010;2022-07-06T07:08:15;101801.26;;;17.21;68.44
62946;BME280;52164;52.212;-1.010;2022-07-06T07:10:40;101812.02;;;17.30;68.28
62946;BME280;52164;52.212;-1.010;2022-07-06T07:13:06;101805.13;;;17.35;68.03
62946;BME280;52164;52.212;-1.010;2022-07-06T07:15:31;101814.82;;;17.41;68.17
62946;BME280;52164;52.212;-1.010;2022-07-06T07:17:57;101812.44;;;17.47;67.80
62946;BME280;52164;52.212;-1.010;2022-07-06T07:20:23;101811.13;;;17.53;67.80
62946;BME280;52164;52.212;-1.010;2022-07-06T07:22:49;101810.70;;;17.61;67.59
62946;BME280;52164;52.212;-1.010;2022-07-06T07:25:14;101810.07;;;17.70;67.43
62946;BME280;52164;52.212;-1.010;2022-07-06T07:27:40;101814.36;;;17.76;67.27
62946;BME280;52164;52.212;-1.010;2022-07-06T07:30:06;101815.02;;;17.84;67.22
62946;BME280;52164;52.212;-1.010;2022-07-06T07:32:31;101811.73;;;17.90;67.08
62946;BME280;52164;52.212;-1.010;2022-07-06T07:34:57;101804.80;;;17.96;66.96
62946;BME280;52164;52.212;-1.010;2022-07-06T07:37:26;101803.83;;;18.05;66.87
62946;BME280;52164;52.212;-1.010;2022-07-06T07:39:51;101803.52;;;18.17;66.41
62946;BME280;52164;52.212;-1.010;2022-07-06T07:42:17;101804.89;;;18.22;66.07
62946;BME280;52164;52.212;-1.010;2022-07-06T07:44:42;101799.84;;;18.22;65.97
62946;BME280;52164;52.212;-1.010;2022-07-06T07:47:08;101794.23;;;18.24;65.95
62946;BME280;52164;52.212;-1.010;2022-07-06T07:49:33;101796.58;;;18.23;65.80
62946;BME280;52164;52.212;-1.010;2022-07-06T07:51:59;101793.71;;;18.21;65.85
62946;BME280;52164;52.212;-1.010;2022-07-06T07:54:24;101791.30;;;18.25;65.94
62946;BME280;52164;52.212;-1.010;2022-07-06T07:56:50;101791.39;;;18.33;65.67
62946;BME280;52164;52.212;-1.010;2022-07-06T07:59:15;101788.59;;;18.41;65.60
62946;BME280;52164;52.212;-1.010;2022-07-06T08:01:41;101788.86;;;18.49;65.35
62946;BME280;52164;52.212;-1.010;2022-07-06T08:04:07;101781.36;;;18.54;65.24
62946;BME280;52164;52.212;-1.010;2022-07-06T08:06:32;101775.41;;;18.55;64.82
62946;BME280;52164;52.212;-1.010;2022-07-06T08:08:58;101765.05;;;18.58;64.72
62946;BME280;52164;52.212;-1.010;2022-07-06T08:11:24;101762.11;;;18.62;64.59
62946;BME280;52164;52.212;-1.010;2022-07-06T08:13:50;101759.02;;;18.63;64.43
62946;BME280;52164;52.212;-1.010;2022-07-06T08:16:16;101760.59;;;18.68;64.51
62946;BME280;52164;52.212;-1.010;2022-07-06T08:18:41;101754.75;;;18.71;64.35
62946;BME280;52164;52.212;-1.010;2022-07-06T08:21:07;101746.05;;;18.71;64.18
62946;BME280;52164;52.212;-1.010;2022-07-06T08:23:33;101750.45;;;18.68;63.95
62946;BME280;52164;52.212;-1.010;2022-07-06T08:26:02;101750.98;;;18.69;63.96
62946;BME280;52164;52.212;-1.010;2022-07-06T08:28:28;101747.52;;;18.72;63.96
62946;BME280;52164;52.212;-1.010;2022-07-06T08:30:54;101753.40;;;18.77;63.81
62946;BME280;52164;52.212;-1.010;2022-07-06T08:33:20;101751.52;;;18.82;63.76
62946;BME280;52164;52.212;-1.010;2022-07-06T08:35:46;101761.25;;;18.87;63.40
62946;BME280;52164;52.212;-1.010;2022-07-06T08:38:11;101759.27;;;18.87;63.25
62946;BME280;52164;52.212;-1.010;2022-07-06T08:40:40;101756.16;;;18.89;63.57
62946;BME280;52164;52.212;-1.010;2022-07-06T08:43:06;101758.16;;;19.00;63.42
62946;BME280;52164;52.212;-1.010;2022-07-06T08:45:34;101765.14;;;19.05;63.00
62946;BME280;52164;52.212;-1.010;2022-07-06T08:48:05;101768.35;;;19.09;63.00
62946;BME280;52164;52.212;-1.010;2022-07-06T08:50:31;101773.54;;;19.12;62.78
62946;BME280;52164;52.212;-1.010;2022-07-06T08:52:57;101773.71;;;19.13;62.71
62946;BME280;52164;52.212;-1.010;2022-07-06T08:55:25;101770.71;;;19.19;62.53
62946;BME280;52164;52.212;-1.010;2022-07-06T08:57:51;101775.19;;;19.23;62.55
62946;BME280;52164;52.212;-1.010;2022-07-06T09:00:17;101774.42;;;19.36;62.26
62946;BME280;52164;52.212;-1.010;2022-07-06T09:02:43;101772.47;;;19.45;62.25
62946;BME280;52164;52.212;-1.010;2022-07-06T09:05:13;101774.61;;;19.46;62.14
62946;BME280;52164;52.212;-1.010;2022-07-06T09:07:40;101775.16;;;19.47;62.20
62946;BME280;52164;52.212;-1.010;2022-07-06T09:10:08;101766.70;;;19.45;62.19
62946;BME280;52164;52.212;-1.010;2022-07-06T09:12:34;101768.02;;;19.51;62.13
62946;BME280;52164;52.212;-1.010;2022-07-06T09:14:59;101769.12;;;19.61;61.91
62946;BME280;52164;52.212;-1.010;2022-07-06T09:17:27;101768.72;;;19.64;61.55
62946;BME280;52164;52.212;-1.010;2022-07-06T09:19:54;101761.10;;;19.64;61.58
62946;BME280;52164;52.212;-1.010;2022-07-06T09:22:28;101758.45;;;19.70;61.53
62946;BME280;52164;52.212;-1.010;2022-07-06T09:25:02;101755.10;;;19.75;61.53
62946;BME280;52164;52.212;-1.010;2022-07-06T09:27:28;101758.08;;;19.82;61.35
62946;BME280;52164;52.212;-1.010;2022-07-06T09:29:53;101750.76;;;19.87;61.23
62946;BME280;52164;52.212;-1.010;2022-07-06T09:32:20;101755.90;;;19.93;61.22
62946;BME280;52164;52.212;-1.010;2022-07-06T09:34:47;101759.80;;;19.97;60.95
62946;BME280;52164;52.212;-1.010;2022-07-06T09:37:13;101756.08;;;20.02;60.86
62946;BME280;52164;52.212;-1.010;2022-07-06T09:39:39;101755.59;;;20.09;60.78
62946;BME280;52164;52.212;-1.010;2022-07-06T09:42:06;101753.98;;;20.25;60.45
62946;BME280;52164;52.212;-1.010;2022-07-06T09:44:36;101754.86;;;20.26;60.47
62946;BME280;52164;52.212;-1.010;2022-07-06T09:47:05;101754.88;;;20.43;60.10
62946;BME280;52164;52.212;-1.010;2022-07-06T09:49:31;101752.88;;;20.69;59.65
62946;BME280;52164;52.212;-1.010;2022-07-06T09:51:59;101746.30;;;20.80;59.32
62946;BME280;52164;52.212;-1.010;2022-07-06T09:54:25;101743.10;;;20.77;59.09
62946;BME280;52164;52.212;-1.010;2022-07-06T09:56:51;101745.04;;;20.80;58.86
62946;BME280;52164;52.212;-1.010;2022-07-06T09:59:20;101747.63;;;20.78;58.83
62946;BME280;52164;52.212;-1.010;2022-07-06T10:01:48;101755.15;;;20.83;58.61
62946;BME280;52164;52.212;-1.010;2022-07-06T10:04:15;101749.70;;;20.82;58.34
62946;BME280;52164;52.212;-1.010;2022-07-06T10:06:44;101744.29;;;20.81;58.29
62946;BME280;52164;52.212;-1.010;2022-07-06T10:09:11;101744.14;;;20.79;58.24
62946;BME280;52164;52.212;-1.010;2022-07-06T10:11:40;101737.76;;;20.81;58.17
62946;BME280;52164;52.212;-1.010;2022-07-06T10:14:07;101737.08;;;20.72;58.13
62946;BME280;52164;52.212;-1.010;2022-07-06T10:16:36;101742.34;;;20.61;58.41
62946;BME280;52164;52.212;-1.010;2022-07-06T10:19:05;101748.46;;;20.54;58.40
62946;BME280;52164;52.212;-1.010;2022-07-06T10:21:32;101750.52;;;20.51;58.25
62946;BME280;52164;52.212;-1.010;2022-07-06T10:23:59;101754.80;;;20.38;58.38
62946;BME280;52164;52.212;-1.010;2022-07-06T10:26:26;101756.23;;;20.22;58.85
62946;BME280;52164;52.212;-1.010;2022-07-06T10:28:52;101752.93;;;20.15;59.05
62946;BME280;52164;52.212;-1.010;2022-07-06T10:31:19;101750.24;;;20.13;59.43
62946;BME280;52164;52.212;-1.010;2022-07-06T10:33:46;101757.09;;;20.15;59.34
62946;BME280;52164;52.212;-1.010;2022-07-06T10:36:13;101755.43;;;20.25;59.25
62946;BME280;52164;52.212;-1.010;2022-07-06T10:38:40;101756.30;;;20.36;59.39
62946;BME280;52164;52.212;-1.010;2022-07-06T10:41:07;101757.73;;;20.45;59.33
62946;BME280;52164;52.212;-1.010;2022-07-06T10:43:42;101753.68;;;20.49;59.23
62946;BME280;52164;52.212;-1.010;2022-07-06T10:46:15;101753.83;;;20.49;58.58
62946;BME280;52164;52.212;-1.010;2022-07-06T10:48:44;101751.87;;;20.48;58.61
62946;BME280;52164;52.212;-1.010;2022-07-06T10:51:12;101748.27;;;20.47;58.54
62946;BME280;52164;52.212;-1.010;2022-07-06T10:53:39;101745.06;;;20.45;58.51
62946;BME280;52164;52.212;-1.010;2022-07-06T10:56:07;101740.50;;;20.37;58.69
62946;BME280;52164;52.212;-1.010;2022-07-06T10:58:52;101743.86;;;20.24;58.69
62946;BME280;52164;52.212;-1.010;2022-07-06T11:01:19;101746.97;;;20.14;58.99
62946;BME280;52164;52.212;-1.010;2022-07-06T11:03:49;101749.95;;;20.10;59.18
62946;BME280;52164;52.212;-1.010;2022-07-06T11:06:19;101746.77;;;20.05;59.12
62946;BME280;52164;52.212;-1.010;2022-07-06T11:08:48;101741.73;;;20.03;59.54
62946;BME280;52164;52.212;-1.010;2022-07-06T11:14:16;101741.86;;;20.05;59.30
62946;BME280;52164;52.212;-1.010;2022-07-06T11:16:31;101743.55;;;20.04;59.22
62946;BME280;52164;52.212;-1.010;2022-07-06T11:19:03;101745.81;;;19.99;59.19
62946;BME280;52164;52.212;-1.010;2022-07-06T11:21:48;101745.78;;;19.91;59.37
62946;BME280;52164;52.212;-1.010;2022-07-06T11:24:16;101743.59;;;19.82;59.51
62946;BME280;52164;52.212;-1.010;2022-07-06T11:26:44;101742.27;;;19.74;59.65
62946;BME280;52164;52.212;-1.010;2022-07-06T11:29:12;101742.75;;;19.67;59.85
62946;BME280;52164;52.212;-1.010;2022-07-06T11:31:41;101736.72;;;19.60;60.22
62946;BME280;52164;52.212;-1.010;2022-07-06T11:34:08;101734.22;;;19.58;60.30
62946;BME280;52164;52.212;-1.010;2022-07-06T11:36:34;101740.44;;;19.55;60.45
62946;BME280;52164;52.212;-1.010;2022-07-06T11:39:00;101736.70;;;19.50;60.52
62946;BME280;52164;52.212;-1.010;2022-07-06T11:41:26;101730.02;;;19.49;60.55
62946;BME280;52164;52.212;-1.010;2022-07-06T11:43:52;101727.77;;;19.55;60.43
62946;BME280;52164;52.212;-1.010;2022-07-06T11:46:34;101733.59;;;19.63;60.31
62946;BME280;52164;52.212;-1.010;2022-07-06T11:49:06;101731.45;;;19.72;60.13
62946;BME280;52164;52.212;-1.010;2022-07-06T11:51:35;101736.77;;;19.79;59.92
62946;BME280;52164;52.212;-1.010;2022-07-06T11:56:34;101728.45;;;19.97;59.87
62946;BME280;52164;52.212;-1.010;2022-07-06T11:59:00;101729.52;;;20.16;59.59
62946;BME280;52164;52.212;-1.010;2022-07-06T12:01:27;101733.98;;;20.37;58.98
62946;BME280;52164;52.212;-1.010;2022-07-06T12:03:57;101729.84;;;20.52;58.72
62946;BME280;52164;52.212;-1.010;2022-07-06T12:06:25;101722.23;;;20.61;58.61
62946;BME280;52164;52.212;-1.010;2022-07-06T12:08:53;101714.82;;;20.76;58.48
62946;BME280;52164;52.212;-1.010;2022-07-06T12:11:22;101708.52;;;20.97;57.95
62946;BME280;52164;52.212;-1.010;2022-07-06T12:13:50;101700.50;;;21.21;57.27
62946;BME280;52164;52.212;-1.010;2022-07-06T12:16:16;101692.09;;;21.37;57.09
62946;BME280;52164;52.212;-1.010;2022-07-06T12:18:43;101693.58;;;21.58;56.80
62946;BME280;52164;52.212;-1.010;2022-07-06T12:21:13;101690.97;;;21.80;55.98
62946;BME280;52164;52.212;-1.010;2022-07-06T12:23:41;101694.08;;;21.98;55.36
62946;BME280;52164;52.212;-1.010;2022-07-06T12:26:10;101701.85;;;22.18;55.14
62946;BME280;52164;52.212;-1.010;2022-07-06T12:28:36;101702.95;;;22.37;54.24
62946;BME280;52164;52.212;-1.010;2022-07-06T12:31:02;101700.41;;;22.55;53.57
62946;BME280;52164;52.212;-1.010;2022-07-06T12:33:28;101701.33;;;22.67;53.69
62946;BME280;52164;52.212;-1.010;2022-07-06T12:35:54;101703.06;;;22.81;53.03
62946;BME280;52164;52.212;-1.010;2022-07-06T12:38:24;101704.73;;;22.97;53.06
62946;BME280;52164;52.212;-1.010;2022-07-06T12:40:49;101698.88;;;23.15;52.31
62946;BME280;52164;52.212;-1.010;2022-07-06T12:43:34;101693.33;;;23.29;51.68